Latest Coastal Weather Observations for Port Lincoln Airport

IDS60701

Issued at 5:21 am CDT Monday 27 March 2017 (issued every 10 minutes, with the page automatically refreshed every 10 minutes)

About coastal observations | Map of coastal stations | Coastal observations for SA | Marine services | Other Formats
Station Details ID: 018192 Name: PORT LINCOLN AWS Lat: -34.60 Lon: 135.88 Height: 8.5 m
Data from the previous 72 hours. | See also: Recent months at Port Lincoln Airport
Date/Time
CDT
Temp
°C
Wind Pressure Rain since
9am
mm
Weather Cloud Vis
km
Sea
Height
m
Swell
Dir  Spd
kts
Gust
kts
hPa Trend Height
m
Period
s
Dir
27/05:00am 19.5 WSW 15 21 1009.0 - 0.0 - - 10 - - - -
27/04:30am 19.6 W 19 25 1008.6 - 0.0 - - 10 - - - -
27/04:00am 19.9 WSW 15 21 1008.2 - 0.0 - - 10 - - - -
27/03:30am 20.2 WSW 14 19 1008.1 - 0.0 - Partly cloudy 10 - - - -
27/03:00am 20.8 WSW 17 24 1007.7 - 0.0 - Cloudy 10 - - - -
27/02:30am 21.1 WSW 21 28 1007.0 - 0.0 - Partly cloudy 10 - - - -
27/02:02am 21.2 WSW 16 26 1007.1 - 0.0 - Partly cloudy 10 - - - -
27/02:00am 21.3 WSW 17 26 1007.2 - 0.0 - Partly cloudy 10 - - - -
27/01:58am 21.3 WSW 16 23 1007.3 - 0.0 - Partly cloudy 10 - - - -
27/01:30am 21.6 WSW 13 23 1007.5 - 0.0 - Cloudy 10 - - - -
27/01:03am 21.6 WSW 15 25 1006.6 - 0.0 - Partly cloudy 10 - - - -
27/01:00am 21.7 WSW 16 27 1006.4 - 0.0 - Partly cloudy 10 - - - -
27/12:53am 21.8 WSW 19 29 1006.4 - 0.0 - Partly cloudy 10 - - - -
27/12:30am 22.4 W 23 30 1005.4 - 0.0 - - 10 - - - -
27/12:00am 23.4 W 26 34 1004.7 - 0.0 - Cloudy 10 - - - -
 
Date/Time
CDT
Temp
°C
Wind Pressure Rain since
9am
mm
Weather Cloud Vis
km
Sea
Height
m
Swell
Dir  Spd
kts
Gust
kts
hPa Trend Height
m
Period
s
Dir
26/11:30pm 25.2 WSW 19 26 1004.5 - 0.0 - - 10 - - - -
26/11:00pm 28.7 W 16 25 1004.5 - 0.0 - - 10 - - - -
26/10:50pm 29.7 WNW 12 20 1004.4 - 0.0 - - 10 - - - -
26/10:30pm 28.2 WNW 5 8 1004.1 - 0.0 - - 10 - - - -
26/10:00pm 30.4 N 8 13 1003.8 - 0.0 - - 10 - - - -
26/09:53pm 29.1 N 4 12 1003.8 - 0.0 - - 10 - - - -
26/09:30pm 23.9 CALM 0 4 1003.8 - 0.0 - - 10 - - - -
26/09:00pm 23.8 SSE 1 3 1003.9 - 0.0 - Cloudy 10 - - - -
26/08:30pm 24.3 CALM 0 0 1004.0 - 0.0 - - 10 - - - -
26/08:00pm 24.4 NE 3 4 1004.1 - 0.0 - - 10 - - - -
26/07:30pm 25.3 NE 4 6 1004.2 - 0.0 - - 10 - - - -
26/07:00pm 26.0 ENE 7 9 1004.5 - 0.0 - - 10 - - - -
26/06:30pm 27.0 ENE 10 13 1004.6 - 0.0 - - 10 - - - -
26/06:00pm 28.3 NE 10 13 1004.7 - 0.0 - Mostly cloudy 10 - - - -
26/05:30pm 26.9 ENE 13 16 1005.0 - 0.0 - - 10 - - - -
26/05:00pm 26.4 ENE 12 15 1005.4 - 0.0 - - 10 - - - -
26/04:30pm 28.1 ENE 13 15 1005.5 - 0.0 - - 10 - - - -
26/04:00pm 27.4 ENE 15 17 1005.8 - 0.0 - - 10 - - - -
26/03:30pm 25.9 ENE 13 18 1006.3 - 0.0 - - 10 - - - -
26/03:00pm 25.8 ENE 13 16 1007.1 - 0.0 - Mostly cloudy 10 - - - -
26/02:30pm 24.8 ENE 12 15 1007.8 - 0.0 - Partly cloudy 10 - - - -
26/02:00pm 23.8 ENE 11 13 1008.9 - 0.0 - Partly cloudy 10 - - - -
26/01:30pm 23.2 ENE 9 11 1009.6 - 0.0 - Partly cloudy 10 - - - -
26/01:00pm 23.7 ENE 10 12 1010.3 - 0.0 - - 10 - - - -
26/12:30pm 23.0 ENE 9 11 1010.8 - 0.0 - - 10 - - - -
26/12:00pm 23.5 E 9 11 1011.0 - 0.0 - Cloudy 10 - - - -
26/11:30am 23.0 E 8 10 1011.7 - 0.0 - Partly cloudy 10 - - - -
26/11:19am 23.0 E 8 10 1011.9 - 0.0 - Partly cloudy 10 - - - -
26/11:00am 23.4 E 7 10 1012.0 - 0.0 - Partly cloudy 10 - - - -
26/10:30am 22.2 ESE 7 10 1011.9 - 0.0 - Cloudy 10 - - - -
26/10:00am 21.8 ESE 8 9 1011.9 - 0.0 - Partly cloudy 10 - - - -
26/09:37am 21.8 SE 6 8 1012.1 - 0.0 - Partly cloudy 10 - - - -
26/09:30am 21.6 SE 6 7 1012.1 - 0.0 - Partly cloudy 10 - - - -
26/09:00am 21.2 SE 4 5 1011.9 - 0.2 - Cloudy 10 - - - -
26/08:30am 20.8 CALM 0 0 1011.7 - 0.2 - Partly cloudy 10 - - - -
26/08:00am 20.4 SE 3 4 1011.6 - 0.2 - Partly cloudy 10 - - - -
26/07:30am 20.2 SSE 4 5 1011.4 - 0.2 - Cloudy 10 - - - -
26/07:00am 19.9 SSE 1 4 1011.3 - 0.2 - Cloudy 10 - - - -
26/06:30am 19.9 SE 4 5 1011.0 - 0.2 - Cloudy 10 - - - -
26/06:05am 20.2 E 4 5 1010.8 - 0.2 - Partly cloudy 10 - - - -
26/06:00am 20.1 E 4 5 1010.8 - 0.2 - Cloudy 10 - - - -
26/05:30am 20.0 CALM 0 0 1010.6 - 0.2 - Cloudy 10 - - - -
26/05:00am 19.8 NE 2 4 1010.5 - 0.2 - Cloudy 10 - - - -
26/04:30am 19.7 CALM 0 3 1010.6 - 0.2 - Partly cloudy 10 - - - -
26/04:28am 19.7 CALM 0 0 1010.5 - 0.2 - Partly cloudy 10 - - - -
26/04:00am 19.6 NNE 4 6 1010.5 - 0.2 - - 10 - - - -
26/03:30am 19.4 NNE 4 5 1011.0 - 0.2 - Partly cloudy 10 - - - -
26/03:00am 19.3 N 5 6 1012.0 - 0.2 - Cloudy 10 - - - -
26/02:30am 19.4 N 3 5 1012.6 - 0.2 - Partly cloudy 10 - - - -
26/02:00am 19.2 CALM 0 0 1013.0 - 0.2 - - 10 - - - -
26/01:30am 19.3 CALM 0 0 1013.4 - 0.0 - Partly cloudy 10 - - - -
26/01:00am 19.3 CALM 0 0 1013.9 - 0.0 - Partly cloudy 10 - - - -
26/12:38am 18.9 CALM 0 0 1014.0 - 0.0 - Partly cloudy 10 - - - -
26/12:30am 18.9 CALM 0 3 1014.1 - 0.0 - Partly cloudy 10 - - - -
26/12:00am 19.1 CALM 0 0 1014.3 - 0.0 - Cloudy 10 - - - -
 
Date/Time
CDT
Temp
°C
Wind Pressure Rain since
9am
mm
Weather Cloud Vis
km
Sea
Height
m
Swell
Dir  Spd
kts
Gust
kts
hPa Trend Height
m
Period
s
Dir
25/11:48pm 19.2 CALM 0 0 1014.3 - 0.0 - Partly cloudy 10 - - - -
25/11:30pm 19.2 SE 1 3 1014.3 - 0.0 - - 10 - - - -
25/11:00pm 19.3 ESE 5 6 1014.3 - 0.0 - - 10 - - - -
25/10:30pm 19.4 SE 6 8 1014.8 - 0.0 - Partly cloudy 10 - - - -
25/10:00pm 19.4 ESE 5 5 1014.6 - 0.0 - - 10 - - - -
25/09:30pm 19.5 SE 4 5 1014.3 - 0.0 - - 10 - - - -
25/09:00pm 19.5 ESE 5 6 1013.9 - 0.0 - Mostly cloudy 10 - - - -
25/08:30pm 19.5 ESE 4 5 1013.9 - 0.0 - - 10 - - - -
25/08:00pm 20.0 ESE 4 5 1013.8 - 0.0 - - 10 - - - -
25/07:30pm 20.3 E 5 6 1013.5 - 0.0 - - 10 - - - -
25/07:00pm 20.9 E 7 8 1013.3 - 0.0 - Partly cloudy 10 - - - -
25/06:30pm 21.1 E 7 8 1013.0 - 0.0 - Partly cloudy 10 - - - -
25/06:00pm 21.4 E 7 9 1013.0 - 0.0 - Mostly cloudy 10 - - - -
25/05:30pm 21.2 E 6 7 1013.1 - 0.0 - Cloudy 10 - - - -
25/05:00pm 21.2 ENE 8 10 1013.2 - 0.0 - Partly cloudy 10 - - - -
25/04:30pm 22.8 E 8 11 1013.0 - 0.0 - - 10 - - - -
25/04:00pm 22.8 ENE 8 10 1013.2 - 0.0 - - 10 - - - -
25/03:30pm 22.1 ENE 10 13 1013.2 - 0.0 - Partly cloudy 10 - - - -
25/03:00pm 22.0 ENE 8 10 1013.7 - 0.0 - Cloudy 10 - - - -
25/02:30pm 22.5 ESE 6 8 1013.9 - 0.0 - - 10 - - - -
25/02:00pm 21.9 E 7 9 1014.2 - 0.0 - - 10 - - - -
25/01:30pm 22.2 ENE 7 9 1014.5 - 0.0 - - 10 - - - -
25/01:00pm 22.7 SE 7 9 1014.7 - 0.0 - Partly cloudy 10 - - - -
25/12:30pm 22.8 SSE 6 8 1015.2 - 0.0 - Partly cloudy 10 - - - -
25/12:00pm 22.4 SE 5 7 1015.2 - 0.0 - Cloudy 10 - - - -
25/11:30am 22.2 SE 5 7 1015.0 - 0.0 - - 10 - - - -
25/11:00am 21.3 SE 4 6 1014.9 - 0.0 - - 10 - - - -
25/10:30am 21.2 SSE 5 6 1014.8 - 0.0 - - 10 - - - -
25/10:00am 20.8 SSE 4 7 1014.7 - 0.0 - - 10 - - - -
25/09:30am 20.7 S 6 7 1014.3 - 0.0 - - 10 - - - -
25/09:00am 20.0 SW 4 4 1014.1 - 0.0 - Cloudy 10 - - - -
25/08:30am 19.3 SSW 4 5 1013.6 - 0.0 - - 10 - - - -
25/08:00am 18.9 SW 5 6 1013.6 - 0.0 - Partly cloudy 10 - - - -
25/07:30am 18.4 WSW 4 6 1013.6 - 0.0 - Partly cloudy 10 - - - -
25/07:00am 18.5 WSW 5 6 1012.9 - 0.0 - - 10 - - - -
25/06:30am 18.6 SW 5 6 1012.5 - 0.0 - - 10 - - - -
25/06:00am 18.9 SW 5 7 1012.0 - 0.0 - Cloudy 10 - - - -
25/05:30am 19.0 SW 5 7 1012.1 - 0.0 - - 10 - - - -
25/05:00am 17.8 W 5 7 1012.0 - 0.0 - - 10 - - - -
25/04:30am 18.5 CALM 0 4 1011.6 - 0.0 - - 10 - - - -
25/04:00am 18.5 W 3 6 1011.6 - 0.0 - - 10 - - - -
25/03:30am 18.9 SW 2 4 1011.6 - 0.0 - - 10 - - - -
25/03:00am 19.1 WNW 4 6 1011.3 - 0.0 - - 10 - - - -
25/02:30am 19.2 WSW 3 4 1011.9 - 0.0 - - 10 - - - -
25/02:00am 19.9 SSW 6 6 1012.0 - 0.0 - Partly cloudy 10 - - - -
25/01:30am 20.2 SSE 1 4 1012.3 - 0.0 - Cloudy 10 - - - -
25/01:00am 20.1 CALM 0 0 1012.7 - 0.0 - Cloudy 10 - - - -
25/12:30am 19.8 NNW 4 5 1012.7 - 0.0 - Partly cloudy 10 - - - -
25/12:00am 19.8 N 4 5 1012.9 - 0.0 - Partly cloudy 10 - - - -
 
Date/Time
CDT
Temp
°C
Wind Pressure Rain since
9am
mm
Weather Cloud Vis
km
Sea
Height
m
Swell
Dir  Spd
kts
Gust
kts
hPa Trend Height
m
Period
s
Dir
24/11:30pm 20.0 NW 5 6 1013.1 - 0.0 - - 10 - - - -
24/11:00pm 20.5 NW 3 4 1013.4 - 0.0 - - 10 - - - -
24/10:30pm 20.2 W 4 4 1013.5 - 0.0 - - 10 - - - -
24/10:00pm 20.7 CALM 0 0 1013.2 - 0.0 - - 10 - - - -
24/09:30pm 21.2 SSW 7 8 1013.6 - 0.0 - Partly cloudy 10 - - - -
24/09:00pm 21.6 SW 6 9 1013.5 - 0.0 - Cloudy 10 - - - -
24/08:30pm 21.9 SSE 6 7 1013.1 - 0.0 - - 10 - - - -
24/08:00pm 22.4 S 6 7 1013.1 - 0.0 - - 10 - - - -
24/07:30pm 22.4 S 6 7 1012.8 - 0.0 - - 10 - - - -
24/07:00pm 22.6 S 6 8 1012.5 - 0.0 - - 10 - - - -
24/06:30pm 22.9 SSE 12 14 1012.5 - 0.0 - - 10 - - - -
24/06:00pm 23.7 S 17 21 1012.4 - 0.0 - Cloudy 10 - - - -
24/05:30pm 24.4 S 19 24 1011.7 - 0.0 - - 10 - - - -
24/05:00pm 28.8 S 18 23 1011.7 - 0.0 - - 10 - - - -
24/04:30pm 30.7 SW 13 19 1011.7 - 0.0 - - 10 - - - -
24/04:00pm 30.7 SW 14 20 1011.7 - 0.0 - - 10 - - - -
24/03:30pm 28.5 SSE 10 13 1011.9 - 0.0 - - 10 - - - -
24/03:00pm 29.5 SW 15 21 1012.1 - 0.0 - - 10 - - - -
24/02:30pm 32.1 W 13 19 1011.9 - 0.0 - - 10 - - - -
24/02:00pm 32.6 W 13 18 1012.4 - 0.0 - - 10 - - - -
24/01:30pm 28.1 ENE 4 8 1012.7 - 0.0 - - 10 - - - -
24/01:00pm 27.9 E 4 7 1012.9 - 0.0 - - 10 - - - -
24/12:30pm 25.0 E 5 7 1013.2 - 0.0 - - 10 - - - -
24/12:00pm 25.6 ENE 7 9 1013.1 - 0.0 - - 10 - - - -
24/11:30am 25.6 ENE 5 8 1013.2 - 0.0 - - 10 - - - -
24/11:00am 24.5 ENE 5 8 1013.7 - 0.0 - - 10 - - - -
24/10:30am 23.3 ENE 9 11 1013.4 - 0.0 - - 10 - - - -
24/10:00am 22.4 ENE 7 9 1013.7 - 0.0 - - 10 - - - -
24/09:30am 21.3 ENE 1 4 1013.9 - 0.0 - - 10 - - - -
24/09:00am 19.9 CALM 0 0 1013.6 - 0.0 - - 10 - - - -
24/08:30am 18.5 WNW 4 5 1013.7 - 0.0 - - 10 - - - -
24/08:00am 15.8 CALM 0 0 1013.5 - 0.0 - - 10 - - - -
24/07:30am 16.4 CALM 0 0 1013.7 - 0.0 - - 10 - - - -
24/07:00am 16.4 W 3 4 1013.6 - 0.0 - - 10 - - - -
24/06:30am 16.2 W 5 7 1013.6 - 0.0 - - 10 - - - -
24/06:00am 16.6 NNW 3 5 1013.1 - 0.0 - - 10 - - - -
24/05:30am 15.5 CALM 0 4 1012.9 - 0.0 - - 10 - - - -

Other Formats:

Comma delimited format used in spreadsheet applications
http://www.bom.gov.au/fwo/IDS60701/IDS60701.95661.axf

JavaScript Object Notation format (JSON) in row-major order
http://www.bom.gov.au/fwo/IDS60701/IDS60701.95661.json